Time;durP1;ratioP1;P1;durP2;ratioP2;P2;SDS_P1;SDS_P2;PMS_P1;PMS_P2;Temp;Humidity;BMP_temperature;BMP_pressure;BME280_temperature;BME280_humidity;BME280_pressure;Samples;Min_cycle;Max_cycle;Signal;HPM_P1;HPM_P2
2021/07/31 00:00:12;;;;;;;14.07;6.00;;;18.60;99.90;;;;;;5017426;28;20505;-91
2021/07/31 00:02:38;;;;;;;10.23;5.55;;;18.60;99.90;;;;;;5017843;28;20469;-91
2021/07/31 00:05:07;;;;;;;10.40;6.00;;;18.50;99.90;;;;;;5017449;28;20032;-91
2021/07/31 00:07:33;;;;;;;17.92;6.05;;;18.60;99.90;;;;;;5017922;28;20037;-91
2021/07/31 00:09:59;;;;;;;13.02;5.40;;;18.70;99.90;;;;;;5017584;28;20105;-90
2021/07/31 00:12:25;;;;;;;11.10;5.45;;;18.80;99.90;;;;;;5017427;28;20025;-90
2021/07/31 00:14:51;;;;;;;8.30;5.32;;;18.90;99.90;;;;;;5034896;28;20092;-90
2021/07/31 00:17:16;;;;;;;7.10;5.13;;;18.80;99.90;;;;;;5017703;28;20068;-91
2021/07/31 00:19:42;;;;;;;10.68;5.85;;;18.90;99.90;;;;;;5017599;28;20025;-91
2021/07/31 00:22:08;;;;;;;10.98;5.78;;;18.90;99.90;;;;;;5021932;28;20087;-92
2021/07/31 00:24:34;;;;;;;9.38;5.75;;;18.90;99.90;;;;;;5026873;28;20033;-91
2021/07/31 00:26:59;;;;;;;10.23;5.72;;;18.80;99.90;;;;;;5025363;28;20025;-91
2021/07/31 00:29:25;;;;;;;10.18;5.65;;;18.90;99.90;;;;;;5025565;28;20018;-92
2021/07/31 00:31:51;;;;;;;10.57;6.13;;;19.00;99.90;;;;;;5025734;28;20022;-92
2021/07/31 00:34:16;;;;;;;7.50;6.00;;;19.10;99.90;;;;;;5017970;28;20079;-91
2021/07/31 00:36:42;;;;;;;11.75;4.70;;;19.10;99.90;;;;;;5017820;28;20059;-93
2021/07/31 00:39:08;;;;;;;7.35;5.40;;;19.20;99.90;;;;;;5027251;28;20144;-91
2021/07/31 00:41:33;;;;;;;11.23;5.90;;;19.20;99.90;;;;;;5036740;28;20047;-91
2021/07/31 00:43:59;;;;;;;9.45;5.00;;;19.20;99.90;;;;;;5036943;28;20036;-92
2021/07/31 00:46:26;;;;;;;6.97;5.10;;;19.30;99.90;;;;;;5037515;28;20039;-91
2021/07/31 00:48:52;;;;;;;8.05;5.30;;;19.30;99.90;;;;;;5036436;28;20021;-92
2021/07/31 00:51:18;;;;;;;6.97;4.95;;;19.20;99.90;;;;;;5036785;28;20112;-92
2021/07/31 00:53:45;;;;;;;7.35;3.70;;;19.30;99.90;;;;;;5036606;28;20056;-92
2021/07/31 00:56:12;;;;;;;10.05;4.40;;;19.30;99.90;;;;;;5036539;28;20025;-91
2021/07/31 00:58:38;;;;;;;6.47;4.60;;;19.20;99.90;;;;;;5036441;28;20051;-91
2021/07/31 01:01:04;;;;;;;8.48;4.40;;;19.20;99.90;;;;;;5036498;28;20039;-93
2021/07/31 01:03:30;;;;;;;12.30;4.43;;;19.30;99.90;;;;;;5036376;28;20025;-90
2021/07/31 01:05:56;;;;;;;6.13;4.10;;;19.30;99.90;;;;;;5036330;28;20022;-92
2021/07/31 01:08:22;;;;;;;6.07;2.92;;;19.30;99.90;;;;;;5036494;28;20420;-91
2021/07/31 01:10:48;;;;;;;8.10;3.63;;;19.20;99.90;;;;;;5036383;28;20025;-91
2021/07/31 01:13:14;;;;;;;7.60;3.92;;;19.20;99.90;;;;;;5036802;28;20033;-92
2021/07/31 01:16:00;;;;;;;10.05;4.50;;;19.10;99.90;;;;;;5036355;28;20021;-91
2021/07/31 01:18:26;;;;;;;7.78;3.55;;;19.00;99.90;;;;;;5037011;28;20360;-92
2021/07/31 01:20:53;;;;;;;8.02;4.05;;;19.00;99.90;;;;;;5036190;28;20024;-91
2021/07/31 01:23:18;;;;;;;6.70;4.10;;;19.10;99.90;;;;;;5036286;28;20500;-92
2021/07/31 01:25:44;;;;;;;6.05;3.50;;;19.00;99.90;;;;;;5036265;28;20039;-92
2021/07/31 01:28:10;;;;;;;8.05;4.53;;;19.00;99.90;;;;;;5036490;28;20028;-93
2021/07/31 01:30:36;;;;;;;9.10;4.30;;;18.90;99.90;;;;;;5036567;28;20028;-91
2021/07/31 01:33:01;;;;;;;8.73;3.40;;;19.00;99.90;;;;;;5036392;28;20084;-91
2021/07/31 01:35:27;;;;;;;9.52;3.78;;;19.00;99.90;;;;;;5036115;28;20025;-91
2021/07/31 01:37:56;;;;;;;7.95;3.88;;;18.90;99.90;;;;;;5036301;28;20029;-92
2021/07/31 01:40:21;;;;;;;8.68;3.22;;;18.90;99.90;;;;;;5035950;28;20493;-91
2021/07/31 01:42:50;;;;;;;4.82;3.47;;;18.80;99.90;;;;;;5036140;28;20035;-92
2021/07/31 01:45:15;;;;;;;8.27;3.90;;;18.80;99.90;;;;;;5036266;28;20033;-92
2021/07/31 01:47:41;;;;;;;10.68;3.17;;;18.70;99.90;;;;;;5035917;28;20037;-93
2021/07/31 01:50:07;;;;;;;4.95;2.50;;;18.50;99.90;;;;;;5036146;28;20060;-91
2021/07/31 01:52:33;;;;;;;10.60;3.60;;;18.50;99.90;;;;;;5036200;28;20033;-91
2021/07/31 01:54:59;;;;;;;8.52;3.30;;;18.40;99.90;;;;;;5039360;28;20477;-92
2021/07/31 01:57:25;;;;;;;7.47;3.72;;;18.30;99.90;;;;;;5040916;28;20031;-92
2021/07/31 01:59:51;;;;;;;9.55;3.42;;;18.30;99.90;;;;;;5039787;28;20028;-91
2021/07/31 02:02:17;;;;;;;4.35;2.65;;;18.50;99.90;;;;;;5040080;28;20481;-91
2021/07/31 02:04:42;;;;;;;6.90;3.17;;;18.40;99.90;;;;;;5039945;28;20507;-93
2021/07/31 02:07:09;;;;;;;4.93;2.70;;;18.30;99.90;;;;;;5039450;28;20040;-92
2021/07/31 02:09:35;;;;;;;9.20;2.90;;;18.10;99.90;;;;;;5039406;28;20017;-92
2021/07/31 02:12:00;;;;;;;4.85;3.00;;;17.90;99.90;;;;;;5039558;28;20021;-92
2021/07/31 02:14:26;;;;;;;4.63;2.50;;;17.80;99.90;;;;;;5039508;28;20116;-92
2021/07/31 02:16:52;;;;;;;7.10;2.92;;;17.70;99.90;;;;;;5039581;28;20036;-92
2021/07/31 02:19:18;;;;;;;5.40;2.83;;;17.60;99.90;;;;;;5039539;28;20029;-92
2021/07/31 02:21:43;;;;;;;8.02;2.67;;;17.60;99.90;;;;;;5039020;28;20083;-91
2021/07/31 02:24:09;;;;;;;7.97;2.30;;;17.60;99.90;;;;;;5039661;28;20021;-92
2021/07/31 02:26:35;;;;;;;8.45;2.30;;;17.60;99.90;;;;;;5039286;28;20021;-91
2021/07/31 02:29:01;;;;;;;7.90;2.65;;;17.50;99.90;;;;;;5040396;28;20018;-91
2021/07/31 02:31:29;;;;;;;9.25;2.45;;;17.50;99.90;;;;;;5042885;28;20021;-91
2021/07/31 02:33:55;;;;;;;6.78;2.33;;;17.50;99.90;;;;;;5049114;28;20029;-92
2021/07/31 02:36:21;;;;;;;8.07;2.85;;;17.50;99.90;;;;;;5051493;28;20475;-91
2021/07/31 02:38:47;;;;;;;8.35;3.03;;;17.70;99.90;;;;;;5048456;28;20056;-91
2021/07/31 02:41:12;;;;;;;5.97;2.35;;;17.80;99.90;;;;;;5045979;28;20082;-93
2021/07/31 02:43:39;;;;;;;9.82;2.58;;;17.90;99.90;;;;;;5040586;28;20107;-91
2021/07/31 02:46:06;;;;;;;6.28;2.30;;;17.90;99.90;;;;;;5039424;28;20029;-91
2021/07/31 02:48:36;;;;;;;8.05;2.38;;;17.80;99.90;;;;;;5039190;28;20085;-91
2021/07/31 02:51:10;;;;;;;9.18;2.50;;;17.80;99.90;;;;;;5038908;28;20025;-90
2021/07/31 02:53:36;;;;;;;5.15;2.38;;;17.80;99.90;;;;;;5038990;28;20051;-92
2021/07/31 02:56:03;;;;;;;5.88;2.13;;;17.90;99.90;;;;;;5038776;28;20017;-92
2021/07/31 02:58:28;;;;;;;8.30;2.00;;;17.80;99.90;;;;;;5038936;28;20036;-91
2021/07/31 03:00:54;;;;;;;7.80;2.85;;;17.60;99.90;;;;;;5038610;28;20021;-91
2021/07/31 03:03:20;;;;;;;9.95;1.98;;;17.80;99.90;;;;;;5039741;28;20037;-91
2021/07/31 03:05:57;;;;;;;8.30;2.10;;;17.70;99.90;;;;;;5037686;28;20380;-91
2021/07/31 03:08:23;;;;;;;5.93;1.95;;;17.80;99.90;;;;;;5038739;28;20381;-91
2021/07/31 03:10:56;;;;;;;5.15;1.85;;;17.90;99.90;;;;;;5038939;28;20109;-90
2021/07/31 03:13:22;;;;;;;7.60;2.15;;;17.60;99.90;;;;;;5039578;28;20070;-91
2021/07/31 03:15:48;;;;;;;4.72;2.00;;;17.30;99.90;;;;;;5038822;28;20020;-92
2021/07/31 03:18:14;;;;;;;5.55;2.10;;;17.60;99.90;;;;;;5038329;28;20457;-91
2021/07/31 03:20:48;;;;;;;7.18;1.83;;;17.40;99.90;;;;;;5039145;28;20067;-92
2021/07/31 03:23:15;;;;;;;5.55;2.13;;;17.20;99.90;;;;;;5038376;28;20142;-90
2021/07/31 03:25:41;;;;;;;12.95;2.00;;;17.20;99.90;;;;;;5038301;28;20071;-90
2021/07/31 03:28:07;;;;;;;10.50;2.17;;;17.20;99.90;;;;;;5039059;28;20025;-91
2021/07/31 03:30:33;;;;;;;7.00;2.15;;;17.10;99.90;;;;;;5038253;28;20043;-91
2021/07/31 03:32:59;;;;;;;5.70;2.20;;;16.90;99.90;;;;;;5038143;28;20488;-92
2021/07/31 03:35:25;;;;;;;7.93;2.00;;;17.00;99.90;;;;;;5038695;28;20542;-92
2021/07/31 03:37:50;;;;;;;8.40;1.90;;;16.70;99.90;;;;;;5038417;28;20499;-91
2021/07/31 03:40:16;;;;;;;7.45;2.22;;;16.80;99.90;;;;;;5037846;28;20040;-92
2021/07/31 03:42:45;;;;;;;4.28;1.90;;;16.70;99.90;;;;;;5038135;28;20029;-92
2021/07/31 03:45:11;;;;;;;6.50;1.95;;;16.70;99.90;;;;;;5037914;28;20044;-91
2021/07/31 03:47:36;;;;;;;12.30;2.05;;;16.50;99.90;;;;;;5037791;28;20080;-91
2021/07/31 03:50:02;;;;;;;4.22;1.67;;;16.60;99.90;;;;;;5037859;28;20416;-93
2021/07/31 03:52:28;;;;;;;8.38;2.00;;;16.60;99.90;;;;;;5037799;28;20017;-91
2021/07/31 03:54:53;;;;;;;10.15;1.85;;;16.70;99.90;;;;;;5037824;28;20063;-91
2021/07/31 03:57:19;;;;;;;17.60;2.25;;;16.90;99.90;;;;;;5038009;28;20120;-92
2021/07/31 03:59:45;;;;;;;8.80;1.83;;;16.70;99.90;;;;;;5038650;28;20029;-92
2021/07/31 04:02:11;;;;;;;10.77;2.00;;;16.80;99.90;;;;;;5038586;28;20112;-92
2021/07/31 04:04:36;;;;;;;9.82;2.33;;;16.40;99.90;;;;;;5037935;28;20060;-91
2021/07/31 04:07:02;;;;;;;12.25;2.22;;;16.30;99.90;;;;;;5037800;28;20389;-91
2021/07/31 04:09:28;;;;;;;10.15;1.63;;;16.10;99.90;;;;;;5037398;28;20021;-92
2021/07/31 04:11:53;;;;;;;6.90;1.70;;;16.10;99.90;;;;;;5037310;28;20028;-91
2021/07/31 04:14:19;;;;;;;13.13;1.80;;;16.00;99.90;;;;;;5037359;28;20025;-92
2021/07/31 04:16:45;;;;;;;4.60;1.70;;;16.00;99.90;;;;;;5036888;28;20473;-93
2021/07/31 04:19:14;;;;;;;9.77;1.58;;;16.00;99.90;;;;;;5037494;28;20036;-91
2021/07/31 04:21:39;;;;;;;12.60;1.75;;;16.10;99.90;;;;;;5037404;28;20033;-92
2021/07/31 04:24:05;;;;;;;8.95;2.28;;;16.10;99.90;;;;;;5037683;28;20028;-91
2021/07/31 04:26:31;;;;;;;7.57;1.90;;;16.20;99.90;;;;;;5037355;28;20027;-92
2021/07/31 04:28:56;;;;;;;6.88;1.70;;;16.20;99.90;;;;;;5037967;28;20452;-91
2021/07/31 04:31:25;;;;;;;8.75;1.77;;;16.20;99.90;;;;;;5036905;28;20024;-91
2021/07/31 04:33:54;;;;;;;8.15;1.70;;;16.20;99.90;;;;;;5037493;28;20017;-91
2021/07/31 04:36:20;;;;;;;6.63;1.98;;;16.20;99.90;;;;;;5036969;28;20033;-92
2021/07/31 04:38:45;;;;;;;8.95;2.10;;;16.20;99.90;;;;;;5037021;28;20094;-92
2021/07/31 04:41:11;;;;;;;7.30;1.90;;;16.30;99.90;;;;;;5037403;28;20036;-92
2021/07/31 04:43:37;;;;;;;5.40;1.63;;;16.40;99.90;;;;;;5039717;28;20028;-92
2021/07/31 04:46:03;;;;;;;7.93;2.03;;;16.40;99.90;;;;;;5046700;28;20044;-92
2021/07/31 04:48:29;;;;;;;5.80;1.48;;;16.30;99.90;;;;;;5048369;28;20021;-89
2021/07/31 04:51:02;;;;;;;3.70;1.80;;;16.20;99.90;;;;;;5066809;28;20025;-93
2021/07/31 04:53:28;;;;;;;4.35;1.65;;;16.20;99.90;;;;;;5045948;28;20021;-92
2021/07/31 04:55:55;;;;;;;9.40;1.88;;;16.20;99.90;;;;;;5046053;28;20032;-92
2021/07/31 04:58:21;;;;;;;7.45;1.65;;;16.20;99.90;;;;;;5038940;28;20025;-92
2021/07/31 05:00:47;;;;;;;7.72;1.67;;;16.40;99.90;;;;;;5037878;28;20368;-93
2021/07/31 05:03:17;;;;;;;5.97;1.45;;;16.40;99.90;;;;;;5036595;28;20032;-92
2021/07/31 05:05:44;;;;;;;5.20;1.50;;;16.30;99.90;;;;;;5020649;28;20037;-93
2021/07/31 05:08:11;;;;;;;5.45;1.65;;;16.50;99.90;;;;;;5036827;28;20032;-92
2021/07/31 05:10:39;;;;;;;8.07;1.48;;;16.50;99.90;;;;;;5054340;28;20028;-92
2021/07/31 05:13:05;;;;;;;11.85;1.50;;;16.50;99.90;;;;;;5036697;28;20031;-92
2021/07/31 05:15:30;;;;;;;11.93;1.95;;;16.40;99.90;;;;;;5036686;28;20393;-92
2021/07/31 05:17:56;;;;;;;6.40;1.65;;;16.30;99.90;;;;;;5036601;28;20369;-92
2021/07/31 05:20:22;;;;;;;10.70;1.85;;;16.20;99.90;;;;;;5036512;28;20031;-92
2021/07/31 05:22:47;;;;;;;5.18;1.50;;;16.40;99.90;;;;;;5036815;28;20025;-93
2021/07/31 05:25:15;;;;;;;3.40;1.58;;;16.60;99.90;;;;;;5036128;28;20060;-91
2021/07/31 05:27:41;;;;;;;6.53;1.60;;;16.80;99.90;;;;;;5036092;28;20396;-92
2021/07/31 05:30:07;;;;;;;8.45;1.33;;;16.80;99.90;;;;;;5039700;28;20024;-91
2021/07/31 05:32:34;;;;;;;8.00;1.80;;;16.80;99.90;;;;;;5040589;28;20517;-93
2021/07/31 05:35:01;;;;;;;5.82;1.33;;;16.80;99.90;;;;;;5040211;28;20055;-93
2021/07/31 05:37:26;;;;;;;6.57;1.73;;;16.80;99.90;;;;;;5040090;28;20029;-93
2021/07/31 05:39:52;;;;;;;9.68;1.80;;;16.70;99.90;;;;;;5040250;28;20044;-93
2021/07/31 05:42:18;;;;;;;5.50;1.58;;;16.80;99.90;;;;;;5040153;28;20021;-93
2021/07/31 05:44:44;;;;;;;7.90;1.60;;;16.80;99.90;;;;;;5040559;28;20100;-92
2021/07/31 05:47:09;;;;;;;8.52;1.73;;;16.80;99.90;;;;;;5040976;28;20029;-92
2021/07/31 05:49:35;;;;;;;5.32;1.70;;;16.90;99.90;;;;;;5040768;28;20049;-93
2021/07/31 05:52:03;;;;;;;9.40;1.40;;;17.00;99.90;;;;;;5041154;28;20028;-92
2021/07/31 05:54:29;;;;;;;9.38;1.58;;;17.00;99.90;;;;;;5040462;28;20115;-92
2021/07/31 05:56:55;;;;;;;9.27;1.90;;;17.10;99.90;;;;;;5039878;28;20053;-92
2021/07/31 05:59:20;;;;;;;8.43;1.40;;;17.20;99.90;;;;;;5040197;28;20033;-93
2021/07/31 06:01:46;;;;;;;6.80;1.80;;;17.30;99.90;;;;;;5040043;28;20099;-92
2021/07/31 06:04:12;;;;;;;3.45;1.58;;;17.60;99.90;;;;;;5040046;28;20040;-92
2021/07/31 06:06:37;;;;;;;5.57;1.85;;;17.80;99.90;;;;;;5040089;28;20546;-93
2021/07/31 06:09:05;;;;;;;6.28;1.52;;;18.00;99.90;;;;;;5039967;28;20028;-93
2021/07/31 06:11:30;;;;;;;5.93;1.50;;;17.90;99.90;;;;;;5039938;28;20023;-92
2021/07/31 06:13:56;;;;;;;9.90;1.90;;;17.90;99.90;;;;;;5039816;28;20021;-93
2021/07/31 06:16:22;;;;;;;5.70;1.90;;;18.00;99.90;;;;;;5039608;28;20017;-93
2021/07/31 06:18:47;;;;;;;3.17;1.55;;;18.20;99.90;;;;;;5039555;28;20029;-92
2021/07/31 06:21:15;;;;;;;6.00;1.48;;;18.10;99.90;;;;;;5039439;28;20032;-92
2021/07/31 06:23:40;;;;;;;6.43;1.73;;;18.30;99.90;;;;;;5040117;28;20104;-93
2021/07/31 06:26:07;;;;;;;5.60;1.88;;;18.40;99.90;;;;;;5039224;28;20428;-93
2021/07/31 06:28:33;;;;;;;6.20;2.10;;;18.60;99.90;;;;;;5039206;28;20369;-92
2021/07/31 06:30:59;;;;;;;5.38;1.70;;;18.60;99.90;;;;;;5039664;28;20025;-94
2021/07/31 06:33:24;;;;;;;10.55;1.90;;;18.50;99.90;;;;;;5039264;28;20021;-92
2021/07/31 06:35:50;;;;;;;3.80;1.73;;;18.50;99.90;;;;;;5039876;28;20074;-92
2021/07/31 06:38:16;;;;;;;10.68;1.90;;;18.50;99.90;;;;;;5038035;28;20021;-91
2021/07/31 06:40:45;;;;;;;3.35;1.58;;;18.50;99.90;;;;;;5019729;28;20032;-92
2021/07/31 06:43:11;;;;;;;5.75;1.73;;;18.50;99.90;;;;;;5020495;28;20021;-93
2021/07/31 06:45:39;;;;;;;8.63;1.50;;;18.50;99.90;;;;;;5019758;28;20026;-92
2021/07/31 06:48:05;;;;;;;8.68;1.67;;;18.60;99.90;;;;;;5020243;28;20574;-92
2021/07/31 06:50:30;;;;;;;9.48;1.80;;;18.60;99.90;;;;;;5033433;28;20056;-92
2021/07/31 06:52:56;;;;;;;6.10;1.80;;;18.60;99.90;;;;;;5036388;28;20026;-91
2021/07/31 06:55:22;;;;;;;4.72;1.50;;;18.60;99.90;;;;;;5035455;28;20029;-92
2021/07/31 06:57:47;;;;;;;6.45;1.50;;;18.70;99.90;;;;;;5031822;28;20026;-93
2021/07/31 07:00:13;;;;;;;10.38;1.80;;;18.70;99.90;;;;;;5030346;28;20118;-91
2021/07/31 07:02:39;;;;;;;7.40;1.60;;;18.80;99.90;;;;;;5024925;28;20021;-92
2021/07/31 07:05:05;;;;;;;6.18;1.40;;;18.90;99.90;;;;;;5024383;28;20485;-94
2021/07/31 07:07:31;;;;;;;5.50;1.65;;;18.80;99.90;;;;;;5022983;28;20021;-95
2021/07/31 07:09:58;;;;;;;5.95;1.90;;;18.80;99.90;;;;;;5022727;28;20030;-93
2021/07/31 07:12:24;;;;;;;4.38;1.48;;;18.90;99.90;;;;;;5021391;28;20520;-90
2021/07/31 07:14:49;;;;;;;6.10;1.52;;;18.70;99.90;;;;;;5020979;28;20026;-91
2021/07/31 07:17:15;;;;;;;4.93;1.88;;;18.60;99.90;;;;;;5021835;28;20465;-91
2021/07/31 07:19:41;;;;;;;8.48;1.50;;;18.80;99.90;;;;;;5021609;28;20021;-91
2021/07/31 07:22:07;;;;;;;7.63;2.08;;;18.90;99.90;;;;;;5021196;28;20021;-89
2021/07/31 07:24:36;;;;;;;4.18;1.50;;;18.90;99.90;;;;;;5021107;28;20029;-90
2021/07/31 07:27:02;;;;;;;6.90;1.40;;;19.00;99.90;;;;;;5020937;28;20121;-91
2021/07/31 07:29:28;;;;;;;9.05;1.50;;;19.10;99.90;;;;;;5020569;28;20117;-92
2021/07/31 07:31:56;;;;;;;4.97;1.48;;;19.10;99.90;;;;;;5023099;28;20025;-91
2021/07/31 07:34:22;;;;;;;6.50;1.63;;;19.20;99.90;;;;;;5020557;28;20049;-91
2021/07/31 07:36:48;;;;;;;12.50;1.60;;;19.10;99.90;;;;;;5021048;28;20041;-92
2021/07/31 07:39:14;;;;;;;6.80;1.40;;;19.30;99.90;;;;;;5030659;28;20052;-90
2021/07/31 07:41:40;;;;;;;5.13;1.63;;;19.50;99.90;;;;;;5040300;28;20021;-90
2021/07/31 07:44:05;;;;;;;6.93;1.35;;;19.50;99.90;;;;;;5041227;28;20025;-90
2021/07/31 07:46:31;;;;;;;4.50;1.48;;;19.40;99.90;;;;;;5039367;28;20110;-89
2021/07/31 07:48:57;;;;;;;6.88;1.63;;;19.40;99.90;;;;;;5039689;28;20106;-90
2021/07/31 07:51:22;;;;;;;9.27;1.98;;;19.50;99.90;;;;;;5039021;28;20025;-89
2021/07/31 07:53:48;;;;;;;10.13;1.65;;;19.50;99.90;;;;;;5040792;28;20028;-89
2021/07/31 07:56:14;;;;;;;8.88;1.48;;;19.40;99.90;;;;;;5040033;28;20079;-92
2021/07/31 07:58:40;;;;;;;8.02;1.67;;;19.30;99.90;;;;;;5040275;28;20021;-91
2021/07/31 08:01:09;;;;;;;12.52;1.95;;;19.50;99.90;;;;;;5039787;28;20025;-90
2021/07/31 08:03:35;;;;;;;7.45;1.50;;;19.70;99.90;;;;;;5039407;28;20027;-90
2021/07/31 08:06:00;;;;;;;6.05;1.73;;;19.80;99.90;;;;;;5039944;28;20021;-91
2021/07/31 08:08:28;;;;;;;6.57;1.50;;;19.90;99.90;;;;;;5039629;28;20032;-90
2021/07/31 08:10:54;;;;;;;5.43;1.60;;;20.00;99.90;;;;;;5039753;28;20021;-91
2021/07/31 08:13:19;;;;;;;6.80;1.45;;;20.00;99.90;;;;;;5039433;28;20028;-91
2021/07/31 08:15:45;;;;;;;6.30;1.60;;;19.80;99.90;;;;;;5040016;28;20083;-90
2021/07/31 08:18:11;;;;;;;6.55;1.20;;;19.80;99.90;;;;;;5039430;28;20025;-91
2021/07/31 08:20:37;;;;;;;7.88;1.55;;;19.90;99.90;;;;;;5039036;28;20033;-90
2021/07/31 08:23:03;;;;;;;6.45;1.40;;;20.10;99.90;;;;;;5039921;28;20025;-91
2021/07/31 08:25:29;;;;;;;5.70;1.38;;;20.10;99.90;;;;;;5039840;28;20041;-91
2021/07/31 08:27:55;;;;;;;8.02;1.55;;;19.90;99.90;;;;;;5039412;28;20362;-93
2021/07/31 08:30:21;;;;;;;6.00;1.40;;;20.00;99.90;;;;;;5039660;28;20025;-90
2021/07/31 08:32:47;;;;;;;6.20;1.58;;;20.30;99.90;;;;;;5039676;28;20093;-92
2021/07/31 08:35:13;;;;;;;4.40;1.40;;;20.50;99.90;;;;;;5039179;28;20499;-91
2021/07/31 08:37:40;;;;;;;10.25;1.73;;;20.50;99.90;;;;;;5037956;28;20021;-90
2021/07/31 08:40:12;;;;;;;5.60;1.40;;;20.50;99.90;;;;;;5038475;28;20051;-91
2021/07/31 08:42:40;;;;;;;7.15;1.50;;;20.50;99.90;;;;;;5022379;28;20480;-91
2021/07/31 08:45:06;;;;;;;4.88;1.55;;;20.70;99.90;;;;;;5038644;28;20025;-90
2021/07/31 08:47:33;;;;;;;5.80;1.35;;;21.00;99.90;;;;;;5038494;28;20032;-91
2021/07/31 08:50:01;;;;;;;5.43;1.13;;;20.90;99.90;;;;;;5038381;28;20032;-89
2021/07/31 08:52:30;;;;;;;7.82;1.20;;;21.00;99.90;;;;;;5038447;28;20025;-89
2021/07/31 08:54:56;;;;;;;7.25;1.70;;;21.20;99.90;;;;;;5056161;28;20017;-90
2021/07/31 08:57:21;;;;;;;6.78;1.77;;;21.30;99.90;;;;;;5039268;28;20021;-90
2021/07/31 08:59:48;;;;;;;10.00;1.52;;;21.50;99.90;;;;;;5043582;28;20111;-89
2021/07/31 09:02:13;;;;;;;5.20;1.13;;;21.20;99.90;;;;;;5063101;28;20028;-88
2021/07/31 09:04:46;;;;;;;6.18;1.17;;;21.20;99.90;;;;;;5042229;28;20029;-90
2021/07/31 09:07:13;;;;;;;5.53;1.25;;;21.40;99.90;;;;;;5040146;28;20110;-90
2021/07/31 09:09:39;;;;;;;4.10;1.20;;;21.40;99.90;;;;;;5038861;28;20021;-90
2021/07/31 09:12:08;;;;;;;6.28;1.30;;;21.20;99.90;;;;;;5038722;28;20023;-92
2021/07/31 09:14:35;;;;;;;3.88;1.30;;;21.10;99.90;;;;;;5037870;28;20025;-90
2021/07/31 09:17:01;;;;;;;4.80;0.95;;;21.30;99.90;;;;;;5037558;28;20082;-88
2021/07/31 09:19:28;;;;;;;4.40;0.95;;;21.50;99.90;;;;;;5038423;28;20029;-91
2021/07/31 09:22:05;;;;;;;6.07;1.30;;;21.60;99.90;;;;;;5037961;28;20028;-91
2021/07/31 09:24:34;;;;;;;5.07;1.13;;;21.70;99.90;;;;;;5037244;28;20056;-89
2021/07/31 09:27:00;;;;;;;5.13;1.10;;;21.90;99.90;;;;;;5038047;28;20108;-92
2021/07/31 09:29:29;;;;;;;4.15;0.90;;;22.10;99.90;;;;;;5038746;28;20025;-89
2021/07/31 09:31:58;;;;;;;4.07;1.05;;;22.20;99.90;;;;;;5037632;28;20078;-88
2021/07/31 09:34:35;;;;;;;5.20;1.40;;;22.40;99.90;;;;;;5037924;28;20392;-90
2021/07/31 09:37:11;;;;;;;2.15;0.93;;;22.50;99.90;;;;;;5038321;28;20026;-91
2021/07/31 09:39:58;;;;;;;5.55;1.08;;;22.40;99.90;;;;;;5038184;28;20400;-91
2021/07/31 09:42:40;;;;;;;5.47;1.05;;;22.60;99.90;;;;;;5038413;28;20029;-90
2021/07/31 09:45:15;;;;;;;3.83;1.00;;;22.80;99.90;;;;;;5038280;28;20012;-89
2021/07/31 09:48:02;;;;;;;4.93;1.10;;;22.90;99.90;;;;;;5039398;28;20126;-90
2021/07/31 09:50:37;;;;;;;3.28;1.08;;;22.90;99.90;;;;;;5037377;28;20500;-90
2021/07/31 09:53:07;;;;;;;3.33;1.00;;;22.90;99.90;;;;;;5038981;28;20424;-92
2021/07/31 09:55:37;;;;;;;1.70;0.98;;;22.80;99.90;;;;;;5037837;28;20433;-89
2021/07/31 09:58:05;;;;;;;2.53;0.90;;;22.90;99.90;;;;;;5037270;28;20025;-91
2021/07/31 10:00:31;;;;;;;3.75;1.00;;;23.40;99.90;;;;;;5037455;28;20025;-89
2021/07/31 10:02:57;;;;;;;2.58;1.10;;;23.40;99.90;;;;;;5038013;28;20086;-91
2021/07/31 10:05:23;;;;;;;6.05;1.45;;;23.40;99.90;;;;;;5037221;28;20025;-91
2021/07/31 10:07:49;;;;;;;5.07;1.30;;;23.20;99.90;;;;;;5037171;28;20029;-89
2021/07/31 10:10:18;;;;;;;7.65;1.48;;;23.30;99.90;;;;;;5036256;28;20112;-89
2021/07/31 10:12:44;;;;;;;2.88;1.10;;;23.50;99.90;;;;;;5037825;28;20055;-88
2021/07/31 10:15:10;;;;;;;4.00;1.30;;;24.00;99.90;;;;;;5038066;28;20028;-91
2021/07/31 10:17:39;;;;;;;6.90;1.30;;;24.10;99.90;;;;;;5040310;28;20059;-87
2021/07/31 10:20:06;;;;;;;3.15;1.10;;;24.00;99.90;;;;;;5057325;28;20104;-88
2021/07/31 10:22:45;;;;;;;6.22;1.42;;;24.10;99.90;;;;;;5057874;28;20038;-89
2021/07/31 10:25:15;;;;;;;7.45;1.45;;;24.40;99.90;;;;;;5058923;28;20075;-88
2021/07/31 10:27:42;;;;;;;3.58;1.05;;;24.40;99.90;;;;;;5039972;28;20029;-90
2021/07/31 10:30:27;;;;;;;4.70;1.33;;;24.50;99.90;;;;;;5040109;28;20053;-88
2021/07/31 10:32:53;;;;;;;3.72;1.33;;;24.20;99.90;;;;;;5039660;28;20021;-88
2021/07/31 10:35:26;;;;;;;3.00;1.17;;;24.20;99.90;;;;;;5039854;28;20522;-89
2021/07/31 10:37:55;;;;;;;3.63;1.20;;;24.40;99.90;;;;;;5039995;28;20029;-89
2021/07/31 10:40:30;;;;;;;8.23;1.25;;;24.60;99.90;;;;;;5040003;28;20048;-88
2021/07/31 10:42:56;;;;;;;3.90;0.98;;;25.00;99.90;;;;;;5040454;28;20051;-93
2021/07/31 10:45:24;;;;;;;11.02;1.45;;;25.10;99.90;;;;;;5058868;28;20029;-88
2021/07/31 10:47:52;;;;;;;5.10;0.93;;;25.20;99.90;;;;;;5058598;28;20063;-90
2021/07/31 10:50:27;;;;;;;2.92;1.00;;;24.80;99.90;;;;;;5039742;28;20024;-89
2021/07/31 10:52:53;;;;;;;3.55;1.17;;;25.30;99.90;;;;;;5040065;28;20025;-90
2021/07/31 10:55:22;;;;;;;4.95;1.10;;;25.50;99.90;;;;;;5040584;28;20021;-89
2021/07/31 10:57:54;;;;;;;3.53;1.17;;;25.90;98.90;;;;;;5057987;28;20478;-93
2021/07/31 11:00:28;;;;;;;6.05;1.23;;;25.90;99.90;;;;;;5040390;28;20025;-89
2021/07/31 11:03:03;;;;;;;4.88;1.30;;;25.10;99.90;;;;;;5039526;28;20025;-91
2021/07/31 11:05:49;;;;;;;6.68;1.40;;;25.40;99.30;;;;;;5040177;28;20079;-88
2021/07/31 11:08:22;;;;;;;2.78;0.93;;;25.60;99.50;;;;;;5058351;28;20051;-89
2021/07/31 11:10:50;;;;;;;3.45;1.08;;;26.10;97.90;;;;;;5041189;28;20365;-88
2021/07/31 11:13:18;;;;;;;6.78;1.00;;;26.10;98.20;;;;;;5041833;28;20032;-90
2021/07/31 11:15:56;;;;;;;6.30;1.20;;;26.10;98.20;;;;;;5040854;28;20180;-88
2021/07/31 11:18:26;;;;;;;4.05;0.90;;;26.20;97.90;;;;;;5040500;28;20013;-89
2021/07/31 11:20:53;;;;;;;5.05;1.27;;;26.60;99.20;;;;;;5040032;28;20488;-89
2021/07/31 11:23:20;;;;;;;3.00;1.10;;;27.10;96.40;;;;;;5040060;28;20477;-89
2021/07/31 11:25:46;;;;;;;3.33;1.05;;;27.60;95.30;;;;;;5056215;28;20025;-90
2021/07/31 11:28:12;;;;;;;3.30;1.00;;;27.90;94.40;;;;;;5057442;28;20385;-88
2021/07/31 11:30:46;;;;;;;1.98;1.00;;;27.20;95.80;;;;;;5039934;28;20021;-89
2021/07/31 11:33:24;;;;;;;2.70;1.05;;;27.70;94.90;;;;;;5039082;28;20024;-92
2021/07/31 11:35:52;;;;;;;3.80;1.02;;;28.10;94.10;;;;;;5056893;28;20021;-91
2021/07/31 11:38:40;;;;;;;3.40;1.00;;;28.60;92.40;;;;;;5035964;28;21274;-88
2021/07/31 11:41:13;;;;;;;7.38;1.08;;;28.70;91.80;;;;;;5020656;28;20083;-87
2021/07/31 11:43:53;;;;;;;3.22;1.00;;;28.50;91.10;;;;;;5018405;28;20477;-88
2021/07/31 11:46:39;;;;;;;2.58;1.00;;;28.60;90.00;;;;;;5018866;28;20549;-89
2021/07/31 11:49:10;;;;;;;5.68;1.10;;;28.60;91.40;;;;;;5036120;28;20032;-88
2021/07/31 11:51:45;;;;;;;3.97;1.10;;;28.80;90.40;;;;;;5018555;28;20017;-88
2021/07/31 11:54:13;;;;;;;4.82;1.02;;;28.20;90.80;;;;;;5036062;28;20410;-88
2021/07/31 11:56:40;;;;;;;3.38;1.10;;;27.70;91.10;;;;;;5018513;28;20112;-89
2021/07/31 11:59:07;;;;;;;3.75;1.02;;;28.00;91.20;;;;;;5036491;28;20052;-89
2021/07/31 12:01:33;;;;;;;4.88;1.20;;;28.50;88.50;;;;;;5018694;28;20067;-90
2021/07/31 12:03:59;;;;;;;2.97;1.15;;;28.20;87.40;;;;;;5018469;28;20087;-89
2021/07/31 12:06:31;;;;;;;3.60;1.00;;;28.50;86.50;;;;;;5017787;28;20033;-90
2021/07/31 12:09:00;;;;;;;4.10;1.13;;;27.80;87.80;;;;;;5018543;28;20419;-88
2021/07/31 12:11:42;;;;;;;4.28;1.00;;;28.50;86.40;;;;;;5018701;28;20423;-89
2021/07/31 12:14:31;;;;;;;3.17;1.10;;;28.10;85.60;;;;;;5018008;28;20022;-87
2021/07/31 12:17:12;;;;;;;2.75;1.17;;;26.90;91.60;;;;;;5035697;28;20499;-89
2021/07/31 12:19:42;;;;;;;5.20;1.05;;;27.30;90.20;;;;;;5017932;28;20129;-88
2021/07/31 12:22:10;;;;;;;3.78;1.17;;;28.30;88.80;;;;;;5018606;28;20393;-89
2021/07/31 12:24:36;;;;;;;2.30;0.98;;;29.00;83.20;;;;;;5018961;28;20028;-88
2021/07/31 12:27:02;;;;;;;4.43;1.10;;;29.00;83.00;;;;;;5035714;28;20025;-88
2021/07/31 12:29:36;;;;;;;2.03;0.90;;;28.80;83.40;;;;;;5018495;28;20045;-88
2021/07/31 12:32:21;;;;;;;5.43;1.35;;;29.20;87.00;;;;;;5018159;28;20029;-88
2021/07/31 12:34:47;;;;;;;3.17;1.15;;;29.60;87.20;;;;;;5017826;28;20030;-90
2021/07/31 12:37:13;;;;;;;5.63;1.20;;;29.50;83.30;;;;;;5016918;28;20021;-89
2021/07/31 12:39:38;;;;;;;6.70;1.15;;;29.50;82.30;;;;;;5031491;28;20153;-91
2021/07/31 12:42:05;;;;;;;4.50;1.15;;;29.70;81.70;;;;;;5038610;28;20052;-89
2021/07/31 12:44:31;;;;;;;4.13;1.10;;;29.00;83.40;;;;;;5038245;28;20163;-88
2021/07/31 12:46:59;;;;;;;4.30;1.15;;;27.40;86.60;;;;;;5036793;28;20108;-86